Time;durP1;ratioP1;P1;durP2;ratioP2;P2;SDS_P1;SDS_P2;PMS_P1;PMS_P2;Temp;Humidity;BMP_temperature;BMP_pressure;BME280_temperature;BME280_humidity;BME280_pressure;Samples;Min_cycle;Max_cycle;Signal;HPM_P1;HPM_P2
2023/08/04 00:01:29;;;;;;;3.33;2.35;;;16.90;99.90;;;;;;5052209;28;20131;-66
2023/08/04 00:03:55;;;;;;;7.90;2.58;;;16.90;99.90;;;;;;5034668;28;20045;-66
2023/08/04 00:06:20;;;;;;;4.45;2.67;;;16.90;99.90;;;;;;5034285;28;20037;-66
2023/08/04 00:08:46;;;;;;;6.95;3.20;;;16.90;99.90;;;;;;5035042;28;20052;-68
2023/08/04 00:11:12;;;;;;;6.07;2.83;;;16.90;99.90;;;;;;5052558;28;20052;-66
2023/08/04 00:13:37;;;;;;;5.95;2.53;;;16.90;99.90;;;;;;5052287;28;20075;-67
2023/08/04 00:16:07;;;;;;;6.22;2.72;;;16.90;99.90;;;;;;5052485;28;20155;-67
2023/08/04 00:18:33;;;;;;;4.40;2.65;;;16.90;99.90;;;;;;5034758;28;20068;-67
2023/08/04 00:20:59;;;;;;;6.93;3.25;;;16.90;99.90;;;;;;5052486;28;20492;-66
2023/08/04 00:23:25;;;;;;;4.95;2.58;;;16.90;99.90;;;;;;5051930;28;20041;-66
2023/08/04 00:25:51;;;;;;;4.68;2.50;;;16.90;99.90;;;;;;5034014;28;20080;-67
2023/08/04 00:28:16;;;;;;;6.43;2.25;;;16.90;99.90;;;;;;5052721;28;20048;-66
2023/08/04 00:30:42;;;;;;;3.72;2.22;;;16.90;99.90;;;;;;5055816;28;20144;-67
2023/08/04 00:33:09;;;;;;;8.45;3.20;;;16.90;99.90;;;;;;5037871;28;20056;-67
2023/08/04 00:35:35;;;;;;;7.30;2.97;;;16.80;99.90;;;;;;5055823;28;20115;-67
2023/08/04 00:38:01;;;;;;;5.75;2.42;;;16.90;99.90;;;;;;5055928;28;20044;-67
2023/08/04 00:40:29;;;;;;;5.95;2.42;;;16.80;99.90;;;;;;5037827;28;20472;-67
2023/08/04 00:42:54;;;;;;;5.15;1.98;;;16.80;99.90;;;;;;5056056;28;20127;-66
2023/08/04 00:45:23;;;;;;;4.55;2.47;;;16.80;99.90;;;;;;5055445;28;20130;-66
2023/08/04 00:47:48;;;;;;;4.68;2.42;;;16.70;99.90;;;;;;5055772;28;20059;-67
2023/08/04 00:50:14;;;;;;;5.70;2.72;;;16.80;99.90;;;;;;5038077;28;20399;-67
2023/08/04 00:52:41;;;;;;;3.55;2.38;;;16.70;99.90;;;;;;5055555;28;20049;-67
2023/08/04 00:55:09;;;;;;;7.55;2.50;;;16.70;99.90;;;;;;5055321;28;20095;-66
2023/08/04 00:57:37;;;;;;;5.93;2.20;;;16.70;99.90;;;;;;5055480;28;20494;-67
2023/08/04 01:00:03;;;;;;;2.40;1.90;;;16.70;99.90;;;;;;5055274;28;20076;-66
2023/08/04 01:02:29;;;;;;;9.07;2.50;;;16.70;99.90;;;;;;5055143;28;20048;-66
2023/08/04 01:04:56;;;;;;;3.13;2.10;;;16.60;99.90;;;;;;5037626;28;20490;-67
2023/08/04 01:07:24;;;;;;;3.42;1.95;;;16.60;99.90;;;;;;5054715;28;20478;-67
2023/08/04 01:10:07;;;;;;;2.65;1.90;;;16.70;99.90;;;;;;5055368;28;20052;-67
2023/08/04 01:12:52;;;;;;;3.80;1.90;;;16.60;99.90;;;;;;5055427;28;20060;-67
2023/08/04 01:15:18;;;;;;;3.25;1.55;;;16.60;99.90;;;;;;5054889;28;20067;-66
2023/08/04 01:17:44;;;;;;;2.85;1.90;;;16.60;99.90;;;;;;5055310;28;20079;-66
2023/08/04 01:20:10;;;;;;;4.03;1.83;;;16.60;99.90;;;;;;5055270;28;20048;-66
2023/08/04 01:22:36;;;;;;;3.70;1.90;;;16.60;99.90;;;;;;5054772;28;20060;-66
2023/08/04 01:25:02;;;;;;;3.47;1.70;;;16.70;99.90;;;;;;5037020;28;20043;-68
2023/08/04 01:27:37;;;;;;;2.78;1.95;;;16.60;99.90;;;;;;5054544;28;20053;-66
2023/08/04 01:30:07;;;;;;;2.30;1.92;;;16.60;99.90;;;;;;5054398;28;20049;-66
2023/08/04 01:32:33;;;;;;;3.70;1.70;;;16.50;99.90;;;;;;5054600;28;20128;-67
2023/08/04 01:34:59;;;;;;;7.15;2.03;;;16.50;99.90;;;;;;5054573;28;20103;-66
2023/08/04 01:37:24;;;;;;;4.43;2.03;;;16.40;99.90;;;;;;5054613;28;20103;-67
2023/08/04 01:39:50;;;;;;;3.63;1.80;;;16.30;99.90;;;;;;5054266;28;20458;-67
2023/08/04 01:42:16;;;;;;;4.78;1.55;;;16.30;99.90;;;;;;5054334;28;20128;-66
2023/08/04 01:44:41;;;;;;;3.55;2.05;;;16.20;99.90;;;;;;5054416;28;20124;-66
2023/08/04 01:47:07;;;;;;;4.55;2.20;;;16.20;99.90;;;;;;5054558;28;20429;-67
2023/08/04 01:49:34;;;;;;;2.65;2.28;;;16.20;99.90;;;;;;5054273;28;20052;-66
2023/08/04 01:51:59;;;;;;;3.83;1.67;;;16.10;99.90;;;;;;5054481;28;20117;-67
2023/08/04 01:54:25;;;;;;;3.70;2.20;;;16.10;99.90;;;;;;5054192;28;20472;-66
2023/08/04 01:56:51;;;;;;;4.15;1.85;;;16.00;99.90;;;;;;5054125;28;20060;-66
2023/08/04 01:59:17;;;;;;;4.25;2.33;;;16.00;99.90;;;;;;5053950;28;20055;-66
2023/08/04 02:01:42;;;;;;;7.00;3.00;;;16.00;99.90;;;;;;5054071;28;20052;-66
2023/08/04 02:04:08;;;;;;;3.97;2.00;;;16.10;99.90;;;;;;5036862;28;20152;-66
2023/08/04 02:06:34;;;;;;;4.15;2.60;;;16.10;99.90;;;;;;5054317;28;20045;-66
2023/08/04 02:08:59;;;;;;;3.47;2.20;;;16.00;99.90;;;;;;5053862;28;20041;-72
2023/08/04 02:11:25;;;;;;;4.82;1.92;;;16.10;99.90;;;;;;5053871;28;20523;-74
2023/08/04 02:13:50;;;;;;;2.35;2.03;;;16.10;99.90;;;;;;5053754;28;20048;-72
2023/08/04 02:16:16;;;;;;;1.90;1.65;;;16.10;99.90;;;;;;5053885;28;20091;-73
2023/08/04 02:18:42;;;;;;;6.40;1.88;;;16.10;99.90;;;;;;5035632;28;20488;-72
2023/08/04 02:21:08;;;;;;;3.03;1.98;;;16.20;99.90;;;;;;5053309;28;20178;-71
2023/08/04 02:23:33;;;;;;;3.90;2.47;;;16.20;99.90;;;;;;5053524;28;20045;-71
2023/08/04 02:25:59;;;;;;;3.60;2.17;;;16.10;99.90;;;;;;5053525;28;20103;-73
2023/08/04 02:28:25;;;;;;;3.00;1.77;;;16.20;99.90;;;;;;5053308;28;20060;-74
2023/08/04 02:30:50;;;;;;;5.60;2.20;;;16.10;99.90;;;;;;5053951;28;20087;-73
2023/08/04 02:33:16;;;;;;;3.90;1.90;;;16.20;99.90;;;;;;5053831;28;20454;-73
2023/08/04 02:35:42;;;;;;;3.15;1.95;;;16.20;99.90;;;;;;5019147;28;20041;-73
2023/08/04 02:38:07;;;;;;;6.75;2.13;;;16.10;99.90;;;;;;5053280;28;20102;-74
2023/08/04 02:40:39;;;;;;;4.95;2.33;;;16.10;99.90;;;;;;5035450;28;20048;-72
2023/08/04 02:43:04;;;;;;;4.97;1.90;;;16.00;99.90;;;;;;5053179;28;20049;-74
2023/08/04 02:45:30;;;;;;;4.53;1.88;;;15.90;99.90;;;;;;5035557;28;20044;-74
2023/08/04 02:47:56;;;;;;;2.60;1.77;;;16.00;99.90;;;;;;5035802;28;20137;-73
2023/08/04 02:50:22;;;;;;;3.20;1.80;;;15.90;99.90;;;;;;5053077;28;20366;-73
2023/08/04 02:52:47;;;;;;;2.83;1.77;;;15.90;99.90;;;;;;5052253;28;20194;-73
2023/08/04 02:55:13;;;;;;;7.35;2.10;;;15.90;99.90;;;;;;5053208;28;20625;-73
2023/08/04 02:57:39;;;;;;;3.00;1.70;;;15.90;99.90;;;;;;5052563;28;20052;-72
2023/08/04 03:00:07;;;;;;;7.93;2.00;;;15.90;99.90;;;;;;5053267;28;20056;-74
2023/08/04 03:02:33;;;;;;;5.35;2.30;;;15.90;99.90;;;;;;5019266;28;20045;-73
2023/08/04 03:04:58;;;;;;;3.22;2.00;;;15.90;99.90;;;;;;5053288;28;20060;-72
2023/08/04 03:07:25;;;;;;;2.83;2.03;;;15.90;99.90;;;;;;5034945;28;20068;-72
2023/08/04 03:09:50;;;;;;;3.15;1.90;;;15.90;99.90;;;;;;5053151;28;20287;-73
2023/08/04 03:12:16;;;;;;;2.35;2.15;;;15.90;99.90;;;;;;5052796;28;20517;-72
2023/08/04 03:14:42;;;;;;;4.05;1.90;;;15.90;99.90;;;;;;5053056;28;20068;-72
2023/08/04 03:17:07;;;;;;;2.63;1.67;;;16.00;99.90;;;;;;5052686;28;20037;-72
2023/08/04 03:19:33;;;;;;;3.08;2.03;;;16.00;99.90;;;;;;5052820;28;20405;-72
2023/08/04 03:21:59;;;;;;;3.35;1.92;;;16.00;99.90;;;;;;5052942;28;20499;-72
2023/08/04 03:24:24;;;;;;;2.28;1.45;;;16.00;99.90;;;;;;5052523;28;20049;-72
2023/08/04 03:26:50;;;;;;;3.22;1.70;;;15.90;99.90;;;;;;5052407;28;20076;-74
2023/08/04 03:29:16;;;;;;;3.53;1.75;;;15.90;99.90;;;;;;5052535;28;20446;-74
2023/08/04 03:31:42;;;;;;;2.95;1.70;;;16.00;99.90;;;;;;5034277;28;20056;-72
2023/08/04 03:34:08;;;;;;;2.17;1.67;;;16.00;99.90;;;;;;5034830;28;20049;-72
2023/08/04 03:36:33;;;;;;;3.67;1.80;;;16.00;99.90;;;;;;5052829;28;20461;-72
2023/08/04 03:38:59;;;;;;;1.90;1.70;;;16.00;99.90;;;;;;5052344;28;20134;-72
2023/08/04 03:41:25;;;;;;;2.65;1.50;;;16.00;99.90;;;;;;5052313;28;20504;-74
2023/08/04 03:43:51;;;;;;;2.55;1.20;;;16.00;99.90;;;;;;5034880;28;20041;-73
2023/08/04 03:46:16;;;;;;;2.13;1.50;;;15.90;99.90;;;;;;5034949;28;20524;-73
2023/08/04 03:48:42;;;;;;;2.03;1.73;;;15.90;99.90;;;;;;5052461;28;20132;-72
2023/08/04 03:51:08;;;;;;;3.30;2.03;;;15.80;99.90;;;;;;5052244;28;20501;-72
2023/08/04 03:53:33;;;;;;;2.17;1.50;;;15.70;99.90;;;;;;5052332;28;20060;-73
2023/08/04 03:55:59;;;;;;;2.20;1.67;;;15.70;99.90;;;;;;5052613;28;20378;-72
2023/08/04 03:58:25;;;;;;;2.08;1.60;;;15.70;99.90;;;;;;5052258;28;20051;-74
2023/08/04 04:00:50;;;;;;;2.78;1.70;;;15.60;99.90;;;;;;5052479;28;20052;-72
2023/08/04 04:03:16;;;;;;;3.95;2.15;;;15.60;99.90;;;;;;5053698;28;20041;-73
2023/08/04 04:05:42;;;;;;;2.70;1.92;;;15.60;99.90;;;;;;5056125;28;20072;-72
2023/08/04 04:08:07;;;;;;;3.13;1.58;;;15.60;99.90;;;;;;5056609;28;20071;-73
2023/08/04 04:10:33;;;;;;;2.00;1.60;;;15.60;99.90;;;;;;5056013;28;20055;-72
2023/08/04 04:12:59;;;;;;;2.47;1.40;;;15.60;99.90;;;;;;5056559;28;20394;-73
2023/08/04 04:15:24;;;;;;;4.38;1.75;;;15.60;99.90;;;;;;5038265;28;20041;-73
2023/08/04 04:17:50;;;;;;;5.88;2.10;;;15.60;99.90;;;;;;5056015;28;20065;-74
2023/08/04 04:20:16;;;;;;;2.17;1.40;;;15.60;99.90;;;;;;5055899;28;20060;-72
2023/08/04 04:22:41;;;;;;;2.33;1.83;;;15.60;99.90;;;;;;5056520;28;20045;-72
2023/08/04 04:25:07;;;;;;;2.85;1.73;;;15.70;99.90;;;;;;5056036;28;20469;-72
2023/08/04 04:27:33;;;;;;;2.03;1.30;;;15.70;99.90;;;;;;5038590;28;20055;-72
2023/08/04 04:29:58;;;;;;;2.88;1.50;;;15.70;99.90;;;;;;5038006;28;20488;-72
2023/08/04 04:32:24;;;;;;;2.55;1.90;;;15.80;99.90;;;;;;5056185;28;20163;-73
2023/08/04 04:34:50;;;;;;;4.65;1.65;;;15.80;99.90;;;;;;5055515;28;20194;-75
2023/08/04 04:37:16;;;;;;;1.40;1.30;;;15.70;99.90;;;;;;5037712;28;20106;-74
2023/08/04 04:39:41;;;;;;;2.05;1.50;;;15.90;99.90;;;;;;5055887;28;20045;-72
2023/08/04 04:42:07;;;;;;;4.93;1.95;;;15.90;99.90;;;;;;5039534;28;20132;-73
2023/08/04 04:44:33;;;;;;;3.30;1.90;;;15.90;99.90;;;;;;5055317;28;20102;-73
2023/08/04 04:46:58;;;;;;;3.92;1.80;;;15.90;99.90;;;;;;5055807;28;20037;-73
2023/08/04 04:49:24;;;;;;;2.92;2.20;;;16.00;99.90;;;;;;5055482;28;20056;-76
2023/08/04 04:51:50;;;;;;;3.90;2.08;;;16.00;99.90;;;;;;5037821;28;20055;-73
2023/08/04 04:54:15;;;;;;;2.38;2.05;;;16.00;99.90;;;;;;5055299;28;20076;-74
2023/08/04 04:56:41;;;;;;;1.95;1.27;;;16.00;99.90;;;;;;5021314;28;20136;-72
2023/08/04 04:59:07;;;;;;;2.17;1.70;;;15.90;99.90;;;;;;5055337;28;20095;-74
2023/08/04 05:01:32;;;;;;;1.73;1.63;;;16.00;99.90;;;;;;5055624;28;20095;-73
2023/08/04 05:03:58;;;;;;;1.75;1.65;;;15.90;99.90;;;;;;5037171;28;20041;-73
2023/08/04 05:06:24;;;;;;;1.90;1.80;;;15.90;99.90;;;;;;5020798;28;20084;-73
2023/08/04 05:08:49;;;;;;;2.53;1.70;;;15.90;99.90;;;;;;5054949;28;20084;-73
2023/08/04 05:11:15;;;;;;;2.25;1.88;;;16.00;99.90;;;;;;5055438;28;20044;-74
2023/08/04 05:13:41;;;;;;;2.80;1.92;;;16.00;99.90;;;;;;5037232;28;20053;-72
2023/08/04 05:16:08;;;;;;;1.88;1.55;;;16.00;99.90;;;;;;5036778;28;20084;-74
2023/08/04 05:18:33;;;;;;;2.15;1.65;;;16.00;99.90;;;;;;5037425;28;20049;-72
2023/08/04 05:20:59;;;;;;;6.25;2.20;;;16.00;99.90;;;;;;5021079;28;20060;-73
2023/08/04 05:23:25;;;;;;;1.83;1.33;;;16.10;99.90;;;;;;5037398;28;20061;-74
2023/08/04 05:25:50;;;;;;;1.77;1.30;;;16.10;99.90;;;;;;5054747;28;20048;-72
2023/08/04 05:28:23;;;;;;;1.80;1.70;;;16.10;99.90;;;;;;5054425;28;20080;-74
2023/08/04 05:30:53;;;;;;;8.25;2.13;;;16.20;99.90;;;;;;5054397;28;20144;-72
2023/08/04 05:33:19;;;;;;;2.03;1.35;;;16.20;99.90;;;;;;5037277;28;20102;-75
2023/08/04 05:35:46;;;;;;;1.75;1.40;;;16.20;99.90;;;;;;5036598;28;20044;-74
2023/08/04 05:38:12;;;;;;;3.05;2.00;;;16.30;99.90;;;;;;5054506;28;20049;-73
2023/08/04 05:40:41;;;;;;;2.33;1.70;;;16.40;99.90;;;;;;5054062;28;20103;-72
2023/08/04 05:43:07;;;;;;;4.03;1.55;;;16.40;99.90;;;;;;5054473;28;20124;-75
2023/08/04 05:45:36;;;;;;;2.05;1.42;;;16.40;99.90;;;;;;5035978;28;20469;-72
2023/08/04 05:48:03;;;;;;;2.08;1.63;;;16.50;99.90;;;;;;5054574;28;20076;-72
2023/08/04 05:50:28;;;;;;;1.77;1.67;;;16.50;99.90;;;;;;5020186;28;20049;-70
2023/08/04 05:52:54;;;;;;;3.00;1.60;;;16.60;99.90;;;;;;5054041;28;20045;-72
2023/08/04 05:55:20;;;;;;;1.98;1.75;;;16.60;99.90;;;;;;5053838;28;20049;-74
2023/08/04 05:57:46;;;;;;;1.92;1.75;;;16.70;99.90;;;;;;5054043;28;20048;-74
2023/08/04 06:00:12;;;;;;;1.80;1.45;;;16.70;99.90;;;;;;5054057;28;20178;-74
2023/08/04 06:02:38;;;;;;;5.68;2.25;;;16.80;99.90;;;;;;5053749;28;20052;-72
2023/08/04 06:05:04;;;;;;;3.35;1.77;;;16.80;99.90;;;;;;5053739;28;20052;-71
2023/08/04 06:07:30;;;;;;;2.88;2.58;;;16.90;99.90;;;;;;5035628;28;20132;-71
2023/08/04 06:09:55;;;;;;;3.35;1.85;;;16.90;99.90;;;;;;5054115;28;20126;-72
2023/08/04 06:12:21;;;;;;;4.18;1.90;;;17.00;99.90;;;;;;5054036;28;20393;-73
2023/08/04 06:14:47;;;;;;;3.03;1.88;;;17.00;99.90;;;;;;5053888;28;20074;-73
2023/08/04 06:17:12;;;;;;;2.78;2.40;;;17.10;99.90;;;;;;5020113;28;20044;-71
2023/08/04 06:19:40;;;;;;;4.50;1.90;;;17.10;99.90;;;;;;5053487;28;20049;-72
2023/08/04 06:22:07;;;;;;;2.20;1.80;;;17.20;99.90;;;;;;5035506;28;20560;-75
2023/08/04 06:24:33;;;;;;;2.78;1.95;;;17.20;99.90;;;;;;5053096;28;20056;-72
2023/08/04 06:26:58;;;;;;;2.70;1.88;;;17.30;99.90;;;;;;5053760;28;20041;-72
2023/08/04 06:29:24;;;;;;;3.60;2.17;;;17.30;99.90;;;;;;5053170;28;20064;-72
2023/08/04 06:31:50;;;;;;;2.95;2.03;;;17.30;99.90;;;;;;5052639;28;20106;-74
2023/08/04 06:34:16;;;;;;;4.03;2.30;;;17.30;99.90;;;;;;5053164;28;20178;-73
2023/08/04 06:36:45;;;;;;;4.07;2.28;;;17.40;99.90;;;;;;5053259;28;20110;-70
2023/08/04 06:39:11;;;;;;;3.38;1.85;;;17.40;99.90;;;;;;5052877;28;20490;-72
2023/08/04 06:41:37;;;;;;;6.45;2.20;;;17.50;99.90;;;;;;5053128;28;20132;-74
2023/08/04 06:44:03;;;;;;;2.38;2.00;;;17.50;99.90;;;;;;5052853;28;20374;-71
2023/08/04 06:46:28;;;;;;;3.45;1.92;;;17.50;99.90;;;;;;5052740;28;20088;-72
2023/08/04 06:48:54;;;;;;;5.18;2.10;;;17.50;99.90;;;;;;5034884;28;20049;-72
2023/08/04 06:51:20;;;;;;;3.55;2.45;;;17.60;99.90;;;;;;5035081;28;20102;-71
2023/08/04 06:53:45;;;;;;;3.50;2.72;;;17.60;99.90;;;;;;5035470;28;20044;-74
2023/08/04 06:56:11;;;;;;;3.60;1.90;;;17.70;99.90;;;;;;5018948;28;20538;-73
2023/08/04 06:58:36;;;;;;;2.78;1.73;;;17.80;99.90;;;;;;5052479;28;20080;-72
2023/08/04 07:01:02;;;;;;;6.65;2.05;;;17.80;99.90;;;;;;5052639;28;20056;-75
2023/08/04 07:03:28;;;;;;;3.42;1.80;;;18.00;99.90;;;;;;5051923;28;20054;-73
2023/08/04 07:05:53;;;;;;;3.63;2.17;;;18.10;99.90;;;;;;5034457;28;20423;-71
2023/08/04 07:08:19;;;;;;;2.00;1.80;;;18.40;99.90;;;;;;5052698;28;20056;-73
2023/08/04 07:10:45;;;;;;;5.30;2.20;;;18.90;99.90;;;;;;5052625;28;20120;-72
2023/08/04 07:13:11;;;;;;;3.78;2.10;;;19.10;99.90;;;;;;5052776;28;20045;-74
2023/08/04 07:15:36;;;;;;;3.00;2.33;;;19.10;99.90;;;;;;5052571;28;20060;-72
2023/08/04 07:18:02;;;;;;;5.25;2.30;;;19.10;99.90;;;;;;5053457;28;20045;-68
2023/08/04 07:20:28;;;;;;;3.75;2.58;;;19.10;99.90;;;;;;5018666;28;20053;-70
2023/08/04 07:22:54;;;;;;;3.42;2.40;;;19.10;99.90;;;;;;5053148;28;20044;-73
2023/08/04 07:25:20;;;;;;;3.08;1.88;;;19.10;99.90;;;;;;5052990;28;20049;-74
2023/08/04 07:27:46;;;;;;;4.85;2.33;;;19.20;99.90;;;;;;5035500;28;20055;-74
2023/08/04 07:30:13;;;;;;;3.83;1.88;;;19.30;99.90;;;;;;5052233;28;20111;-73
2023/08/04 07:32:39;;;;;;;4.18;2.10;;;19.40;99.90;;;;;;5052721;28;20045;-71
2023/08/04 07:35:05;;;;;;;5.57;2.72;;;19.40;99.90;;;;;;5035460;28;20128;-71
2023/08/04 07:37:31;;;;;;;2.40;2.20;;;19.40;99.90;;;;;;5052431;28;20064;-71
2023/08/04 07:39:57;;;;;;;4.32;2.35;;;19.30;99.90;;;;;;5052159;28;20379;-71
2023/08/04 07:42:23;;;;;;;3.88;2.40;;;19.40;99.90;;;;;;5034747;28;20041;-72
2023/08/04 07:44:49;;;;;;;4.72;2.33;;;19.40;99.90;;;;;;5034732;28;20068;-72
2023/08/04 07:47:15;;;;;;;5.47;2.13;;;19.40;99.90;;;;;;5052281;28;20045;-72
2023/08/04 07:49:40;;;;;;;5.07;2.30;;;19.50;99.90;;;;;;5034569;28;20057;-74
2023/08/04 07:52:06;;;;;;;2.67;1.90;;;19.60;99.90;;;;;;5052274;28;20063;-72
2023/08/04 07:54:33;;;;;;;3.20;2.33;;;19.70;99.90;;;;;;5052413;28;20049;-72
2023/08/04 07:57:01;;;;;;;4.85;2.40;;;19.90;99.90;;;;;;5034674;28;20618;-72
2023/08/04 07:59:26;;;;;;;3.25;2.20;;;20.10;99.90;;;;;;5052451;28;20049;-72
2023/08/04 08:01:52;;;;;;;3.75;2.08;;;20.40;99.90;;;;;;5052204;28;20397;-72
2023/08/04 08:04:18;;;;;;;6.30;2.60;;;20.80;99.90;;;;;;5052451;28;20128;-71
2023/08/04 08:06:44;;;;;;;3.97;2.20;;;21.20;99.90;;;;;;5052530;28;20048;-71
2023/08/04 08:09:11;;;;;;;2.63;2.10;;;21.60;99.90;;;;;;5052095;28;20159;-71
2023/08/04 08:11:37;;;;;;;2.92;1.95;;;21.80;99.90;;;;;;5052239;28;20083;-72
2023/08/04 08:14:03;;;;;;;3.50;1.80;;;21.80;99.90;;;;;;5052760;28;20084;-73
2023/08/04 08:16:28;;;;;;;3.30;2.50;;;21.50;99.90;;;;;;5034767;28;20432;-71
2023/08/04 08:18:55;;;;;;;3.38;1.88;;;21.10;99.90;;;;;;5052078;28;20048;-72
2023/08/04 08:21:21;;;;;;;1.90;1.70;;;20.80;99.90;;;;;;5052058;28;20469;-71
2023/08/04 08:23:47;;;;;;;3.63;1.95;;;20.60;99.90;;;;;;5051970;28;20055;-71
2023/08/04 08:26:13;;;;;;;3.30;2.10;;;20.50;99.90;;;;;;5051938;28;20037;-71
2023/08/04 08:28:39;;;;;;;4.28;2.20;;;20.40;99.90;;;;;;5051911;28;20095;-72
2023/08/04 08:31:05;;;;;;;5.45;2.17;;;20.40;99.90;;;;;;5051857;28;20056;-71
2023/08/04 08:33:30;;;;;;;4.78;2.00;;;20.50;99.90;;;;;;5051917;28;20046;-75
2023/08/04 08:35:56;;;;;;;3.80;1.92;;;20.60;99.90;;;;;;5052317;28;20381;-72
2023/08/04 08:38:22;;;;;;;3.42;2.00;;;20.60;99.90;;;;;;5051840;28;20088;-72
2023/08/04 08:40:48;;;;;;;4.75;1.98;;;20.50;99.90;;;;;;5033937;28;20045;-72
2023/08/04 08:43:15;;;;;;;3.10;2.15;;;20.20;99.90;;;;;;5051827;28;20079;-71
2023/08/04 08:45:42;;;;;;;1.67;1.48;;;19.90;99.90;;;;;;5034749;28;20068;-75
2023/08/04 08:48:09;;;;;;;4.22;1.90;;;19.60;99.90;;;;;;5051773;28;20059;-70
2023/08/04 08:50:35;;;;;;;4.07;2.13;;;19.50;99.90;;;;;;5052849;28;20116;-73
2023/08/04 08:53:10;;;;;;;3.22;1.85;;;19.50;99.90;;;;;;5038062;28;20055;-73
2023/08/04 08:55:37;;;;;;;2.85;2.05;;;19.50;99.90;;;;;;5037935;28;20071;-72
2023/08/04 08:58:04;;;;;;;3.13;2.03;;;19.70;99.90;;;;;;5055592;28;20056;-71
2023/08/04 09:00:29;;;;;;;4.93;2.08;;;20.20;99.90;;;;;;5037310;28;20052;-70
2023/08/04 09:02:56;;;;;;;4.43;1.95;;;20.50;99.90;;;;;;5054969;28;20128;-74
2023/08/04 09:05:22;;;;;;;3.85;2.13;;;21.20;99.90;;;;;;5054924;28;20064;-74
2023/08/04 09:07:50;;;;;;;3.33;1.73;;;22.20;99.90;;;;;;5054881;28;20055;-72
2023/08/04 09:10:16;;;;;;;4.97;1.83;;;23.50;99.90;;;;;;5054627;28;20049;-73
2023/08/04 09:12:46;;;;;;;3.35;1.63;;;23.90;99.90;;;;;;5054606;28;20052;-72
2023/08/04 09:15:12;;;;;;;2.08;1.35;;;23.70;99.90;;;;;;5054590;28;20132;-73
2023/08/04 09:17:40;;;;;;;3.83;1.40;;;23.10;99.90;;;;;;5054840;28;20049;-70
2023/08/04 09:20:10;;;;;;;2.17;1.55;;;22.30;99.90;;;;;;5054755;28;20055;-73
2023/08/04 09:22:43;;;;;;;2.55;1.40;;;21.20;99.90;;;;;;5054872;28;20046;-74
2023/08/04 09:25:09;;;;;;;;;;;20.70;99.90;;;;;;5055058;28;20051;-71
2023/08/04 09:27:38;;;;;;;2.47;1.33;;;20.30;99.90;;;;;;5055121;28;19990;-72
2023/08/04 09:30:09;;;;;;;2.40;1.48;;;20.10;99.90;;;;;;5054537;28;20482;-72
2023/08/04 09:32:42;;;;;;;3.13;1.17;;;20.00;99.90;;;;;;5020100;28;20053;-72
2023/08/04 09:35:08;;;;;;;3.22;1.52;;;19.90;99.90;;;;;;5054735;28;20441;-73
2023/08/04 09:37:36;;;;;;;1.75;1.38;;;19.90;99.90;;;;;;5054275;28;20056;-73
2023/08/04 09:40:04;;;;;;;4.82;1.63;;;20.00;99.90;;;;;;5054196;28;20049;-74
2023/08/04 09:42:35;;;;;;;2.88;1.40;;;20.00;99.90;;;;;;5054345;28;20136;-72
2023/08/04 09:45:01;;;;;;;4.13;2.30;;;20.20;99.90;;;;;;5054134;28;20045;-75
2023/08/04 09:47:27;;;;;;;4.90;2.10;;;20.50;99.90;;;;;;5053617;28;20083;-72
2023/08/04 09:49:54;;;;;;;5.32;2.13;;;21.10;99.90;;;;;;5054171;28;20037;-73
2023/08/04 09:52:28;;;;;;;3.15;2.20;;;21.60;99.90;;;;;;5054027;28;20053;-73
2023/08/04 09:54:55;;;;;;;3.22;1.80;;;21.90;99.90;;;;;;5054611;28;20533;-72
2023/08/04 09:57:23;;;;;;;5.03;1.80;;;22.00;99.90;;;;;;5054203;28;20112;-74
2023/08/04 09:59:51;;;;;;;6.95;2.10;;;22.10;99.90;;;;;;5053867;28;20055;-73
2023/08/04 10:02:20;;;;;;;7.05;2.55;;;22.20;99.90;;;;;;5019556;28;20458;-73
2023/08/04 10:04:50;;;;;;;3.75;2.08;;;22.20;99.90;;;;;;5053620;28;20584;-74
2023/08/04 10:07:19;;;;;;;4.80;2.38;;;22.10;99.90;;;;;;5054423;28;20048;-74
2023/08/04 10:09:48;;;;;;;8.05;1.85;;;21.90;99.90;;;;;;5053712;28;20479;-74
2023/08/04 10:12:16;;;;;;;3.55;1.85;;;21.60;99.90;;;;;;5053697;28;20055;-72
2023/08/04 10:14:42;;;;;;;3.60;1.85;;;21.00;99.90;;;;;;5036618;28;20053;-73
2023/08/04 10:17:08;;;;;;;3.65;2.22;;;20.70;99.90;;;;;;5035671;28;20064;-74
2023/08/04 10:19:35;;;;;;;6.22;2.40;;;20.20;99.90;;;;;;5053637;28;20045;-71
2023/08/04 10:22:20;;;;;;;2.70;1.90;;;20.10;99.90;;;;;;5053557;28;20079;-75
2023/08/04 10:24:46;;;;;;;5.35;2.03;;;20.10;99.90;;;;;;5053660;28;20091;-74
2023/08/04 10:27:19;;;;;;;4.03;2.33;;;20.10;99.90;;;;;;5053624;28;20041;-74
2023/08/04 10:29:45;;;;;;;6.28;2.60;;;20.20;99.90;;;;;;5053585;28;20058;-73
2023/08/04 10:32:11;;;;;;;2.10;1.88;;;20.40;99.90;;;;;;5053975;28;20061;-74
2023/08/04 10:34:42;;;;;;;6.22;2.15;;;21.10;99.90;;;;;;5053386;28;20080;-73
2023/08/04 10:37:15;;;;;;;3.33;1.65;;;22.10;99.90;;;;;;5036106;28;20071;-71
2023/08/04 10:39:43;;;;;;;7.32;2.17;;;22.30;99.90;;;;;;5035892;28;20048;-73
2023/08/04 10:42:11;;;;;;;2.40;1.83;;;23.00;99.90;;;;;;5053182;28;20080;-72
2023/08/04 10:45:05;;;;;;;3.63;1.63;;;23.20;99.90;;;;;;5053199;28;20049;-73
2023/08/04 10:47:53;;;;;;;4.43;1.98;;;23.40;99.90;;;;;;5043069;28;20121;-74
2023/08/04 10:50:19;;;;;;;6.68;2.15;;;24.00;99.90;;;;;;5036031;28;20378;-73
2023/08/04 10:52:45;;;;;;;3.25;1.92;;;23.70;99.90;;;;;;5018677;28;20044;-72
2023/08/04 10:55:13;;;;;;;1.95;1.40;;;23.40;99.90;;;;;;5053006;28;20045;-72
2023/08/04 10:57:40;;;;;;;1.25;1.15;;;22.70;99.90;;;;;;5053039;28;20060;-72
2023/08/04 11:00:08;;;;;;;3.58;1.20;;;22.10;99.90;;;;;;5035685;28;20053;-74
2023/08/04 11:02:35;;;;;;;5.63;1.40;;;21.80;99.90;;;;;;5052951;28;20365;-72
2023/08/04 11:05:03;;;;;;;1.33;1.15;;;21.60;99.90;;;;;;5035094;28;20049;-72
2023/08/04 11:07:29;;;;;;;2.17;1.50;;;21.70;99.90;;;;;;5053066;28;20530;-72
2023/08/04 11:09:55;;;;;;;2.90;1.10;;;21.80;99.90;;;;;;5053250;28;20083;-72
2023/08/04 11:12:21;;;;;;;1.95;1.40;;;22.00;99.90;;;;;;5052708;28;20056;-75
2023/08/04 11:14:49;;;;;;;2.47;1.15;;;22.00;99.90;;;;;;5034766;28;20053;-71
2023/08/04 11:17:19;;;;;;;2.05;1.20;;;21.90;99.90;;;;;;5052663;28;20049;-71
2023/08/04 11:19:47;;;;;;;2.42;1.30;;;22.00;99.90;;;;;;5052731;28;20136;-74
2023/08/04 11:22:18;;;;;;;2.03;1.70;;;22.20;99.90;;;;;;5035380;28;20107;-73
2023/08/04 11:24:44;;;;;;;4.22;1.40;;;22.30;99.90;;;;;;5034902;28;20049;-71
2023/08/04 11:27:12;;;;;;;4.70;1.85;;;22.30;99.90;;;;;;5052788;28;20098;-72
2023/08/04 11:29:38;;;;;;;2.63;1.48;;;22.40;99.90;;;;;;5035478;28;20072;-71
2023/08/04 11:32:10;;;;;;;2.95;1.33;;;22.60;99.90;;;;;;5052239;28;20461;-71
2023/08/04 11:34:38;;;;;;;3.00;1.42;;;22.60;99.90;;;;;;5035491;28;20057;-72
2023/08/04 11:37:04;;;;;;;2.90;1.48;;;22.20;99.90;;;;;;5052328;28;20226;-70
2023/08/04 11:39:30;;;;;;;2.45;1.70;;;21.90;99.90;;;;;;5052006;28;20088;-70
2023/08/04 11:41:56;;;;;;;2.28;1.48;;;21.70;99.90;;;;;;5051937;28;20048;-72
2023/08/04 11:44:22;;;;;;;2.67;1.63;;;21.70;99.90;;;;;;5052598;28;20045;-71
2023/08/04 11:46:48;;;;;;;2.10;1.45;;;21.50;99.90;;;;;;5052128;28;20047;-71
2023/08/04 11:49:14;;;;;;;2.22;1.50;;;21.30;99.90;;;;;;5052351;28;20128;-74
2023/08/04 11:51:43;;;;;;;2.45;1.40;;;21.50;99.90;;;;;;5052614;28;20424;-73
2023/08/04 11:54:24;;;;;;;2.00;1.17;;;21.40;99.90;;;;;;5052286;28;20106;-69
2023/08/04 11:56:58;;;;;;;1.88;1.63;;;21.20;99.90;;;;;;5052555;28;20133;-73
2023/08/04 11:59:24;;;;;;;2.85;1.83;;;21.20;99.90;;;;;;5052608;28;20051;-73
2023/08/04 12:02:02;;;;;;;5.70;1.73;;;20.90;99.90;;;;;;5052791;28;20056;-73
2023/08/04 12:04:28;;;;;;;5.18;1.40;;;20.80;99.90;;;;;;5052265;28;20061;-73
2023/08/04 12:06:59;;;;;;;2.38;1.50;;;20.80;99.90;;;;;;5052233;28;20045;-72
2023/08/04 12:09:24;;;;;;;4.22;1.70;;;21.00;99.90;;;;;;5052093;28;20122;-72
2023/08/04 12:11:51;;;;;;;2.00;1.45;;;21.30;99.90;;;;;;5051811;28;20491;-74
2023/08/04 12:14:17;;;;;;;4.00;1.75;;;21.60;99.90;;;;;;5052051;28;20124;-71
2023/08/04 12:16:54;;;;;;;2.05;1.60;;;21.70;99.90;;;;;;5052017;28;20138;-69
2023/08/04 12:19:22;;;;;;;2.88;1.10;;;21.70;99.90;;;;;;5052476;28;20059;-75
2023/08/04 12:21:52;;;;;;;4.10;1.40;;;21.90;99.90;;;;;;5052250;28;20064;-74
2023/08/04 12:24:19;;;;;;;1.55;1.25;;;21.80;99.90;;;;;;5052966;28;20055;-74
2023/08/04 12:26:45;;;;;;;6.13;1.75;;;21.70;99.90;;;;;;5038064;28;20378;-71
2023/08/04 12:29:11;;;;;;;3.08;1.50;;;21.60;99.90;;;;;;5055529;28;20478;-71
2023/08/04 12:31:38;;;;;;;1.52;1.17;;;21.50;99.90;;;;;;5037863;28;20144;-74
2023/08/04 12:34:04;;;;;;;2.95;1.20;;;21.60;99.90;;;;;;5055587;28;20056;-71
2023/08/04 12:36:30;;;;;;;3.45;1.65;;;21.70;99.90;;;;;;5055882;28;20098;-73
2023/08/04 12:38:56;;;;;;;4.05;1.50;;;21.70;99.90;;;;;;5055600;28;20052;-74
2023/08/04 12:41:22;;;;;;;2.70;1.48;;;21.70;99.90;;;;;;5037639;28;20045;-75
2023/08/04 12:43:48;;;;;;;2.08;1.27;;;21.80;99.90;;;;;;5037589;28;20048;-74
2023/08/04 12:46:13;;;;;;;3.25;1.30;;;21.90;99.90;;;;;;5055272;28;20041;-75